sensor_id;sensor_type;location;lat;lon;timestamp;temperature;humidity
69436;SHT31;56625;54.322;18.582;2022-12-18T00:02:23;-3.83;86.85
69436;SHT31;56625;54.322;18.582;2022-12-18T00:04:51;-3.88;86.86
69436;SHT31;56625;54.322;18.582;2022-12-18T00:07:19;-3.92;86.91
69436;SHT31;56625;54.322;18.582;2022-12-18T00:09:47;-3.98;87.06
69436;SHT31;56625;54.322;18.582;2022-12-18T00:12:15;-4.02;87.10
69436;SHT31;56625;54.322;18.582;2022-12-18T00:14:43;-4.07;87.13
69436;SHT31;56625;54.322;18.582;2022-12-18T00:17:11;-4.12;87.32
69436;SHT31;56625;54.322;18.582;2022-12-18T00:19:38;-4.15;87.49
69436;SHT31;56625;54.322;18.582;2022-12-18T00:22:06;-4.21;87.67
69436;SHT31;56625;54.322;18.582;2022-12-18T00:24:34;-4.27;87.92
69436;SHT31;56625;54.322;18.582;2022-12-18T00:27:02;-4.36;88.14
69436;SHT31;56625;54.322;18.582;2022-12-18T00:29:30;-4.43;88.29
69436;SHT31;56625;54.322;18.582;2022-12-18T00:31:58;-4.48;88.40
69436;SHT31;56625;54.322;18.582;2022-12-18T00:34:26;-4.54;88.44
69436;SHT31;56625;54.322;18.582;2022-12-18T00:36:54;-4.56;88.63
69436;SHT31;56625;54.322;18.582;2022-12-18T00:39:21;-4.61;88.82
69436;SHT31;56625;54.322;18.582;2022-12-18T00:41:49;-4.64;89.04
69436;SHT31;56625;54.322;18.582;2022-12-18T00:44:56;-4.70;89.34
69436;SHT31;56625;54.322;18.582;2022-12-18T00:47:24;-4.71;89.53
69436;SHT31;56625;54.322;18.582;2022-12-18T00:49:52;-4.69;89.67
69436;SHT31;56625;54.322;18.582;2022-12-18T00:52:19;-4.68;89.75
69436;SHT31;56625;54.322;18.582;2022-12-18T00:54:47;-4.68;89.76
69436;SHT31;56625;54.322;18.582;2022-12-18T00:57:15;-4.67;89.81
69436;SHT31;56625;54.322;18.582;2022-12-18T00:59:43;-4.68;89.96
69436;SHT31;56625;54.322;18.582;2022-12-18T01:02:14;-4.69;90.16
69436;SHT31;56625;54.322;18.582;2022-12-18T01:04:42;-4.66;90.23
69436;SHT31;56625;54.322;18.582;2022-12-18T01:07:10;-4.63;90.39
69436;SHT31;56625;54.322;18.582;2022-12-18T01:09:38;-4.60;90.45
69436;SHT31;56625;54.322;18.582;2022-12-18T01:12:05;-4.58;90.60
69436;SHT31;56625;54.322;18.582;2022-12-18T01:14:33;-4.55;90.75
69436;SHT31;56625;54.322;18.582;2022-12-18T01:17:01;-4.53;90.84
69436;SHT31;56625;54.322;18.582;2022-12-18T01:19:31;-4.50;90.81
69436;SHT31;56625;54.322;18.582;2022-12-18T01:21:59;-4.47;90.91
69436;SHT31;56625;54.322;18.582;2022-12-18T01:24:27;-4.40;90.98
69436;SHT31;56625;54.322;18.582;2022-12-18T01:26:55;-4.33;90.87
69436;SHT31;56625;54.322;18.582;2022-12-18T01:29:24;-4.27;90.76
69436;SHT31;56625;54.322;18.582;2022-12-18T01:31:54;-4.22;90.61
69436;SHT31;56625;54.322;18.582;2022-12-18T01:34:23;-4.17;90.65
69436;SHT31;56625;54.322;18.582;2022-12-18T01:36:51;-4.13;90.63
69436;SHT31;56625;54.322;18.582;2022-12-18T01:39:19;-4.10;90.57
69436;SHT31;56625;54.322;18.582;2022-12-18T01:41:48;-4.07;90.53
69436;SHT31;56625;54.322;18.582;2022-12-18T01:50:20;-3.84;90.33
69436;SHT31;56625;54.322;18.582;2022-12-18T01:52:56;-3.76;90.25
69436;SHT31;56625;54.322;18.582;2022-12-18T01:55:28;-3.67;90.15
69436;SHT31;56625;54.322;18.582;2022-12-18T01:58:02;-3.58;90.11
69436;SHT31;56625;54.322;18.582;2022-12-18T02:00:33;-3.52;89.94
69436;SHT31;56625;54.322;18.582;2022-12-18T02:03:02;-3.45;89.79
69436;SHT31;56625;54.322;18.582;2022-12-18T02:08:28;-3.26;89.61
69436;SHT31;56625;54.322;18.582;2022-12-18T02:14:14;-3.00;89.05
69436;SHT31;56625;54.322;18.582;2022-12-18T02:17:07;-2.93;88.71
69436;SHT31;56625;54.322;18.582;2022-12-18T02:25:39;-2.83;87.83
69436;SHT31;56625;54.322;18.582;2022-12-18T02:28:34;-2.79;87.64
69436;SHT31;56625;54.322;18.582;2022-12-18T02:31:10;-2.74;87.45
69436;SHT31;56625;54.322;18.582;2022-12-18T02:33:43;-2.72;87.26
69436;SHT31;56625;54.322;18.582;2022-12-18T02:36:13;-2.72;87.07
69436;SHT31;56625;54.322;18.582;2022-12-18T02:38:44;-2.73;86.92
69436;SHT31;56625;54.322;18.582;2022-12-18T02:41:14;-2.73;86.81
69436;SHT31;56625;54.322;18.582;2022-12-18T02:43:58;-2.72;86.68
69436;SHT31;56625;54.322;18.582;2022-12-18T02:46:34;-2.70;86.54
69436;SHT31;56625;54.322;18.582;2022-12-18T02:57:50;-2.71;86.23
69436;SHT31;56625;54.322;18.582;2022-12-18T03:03:41;-2.69;85.90
69436;SHT31;56625;54.322;18.582;2022-12-18T03:06:39;-2.70;85.77
69436;SHT31;56625;54.322;18.582;2022-12-18T03:12:22;-2.70;85.32
69436;SHT31;56625;54.322;18.582;2022-12-18T03:15:13;-2.74;85.20
69436;SHT31;56625;54.322;18.582;2022-12-18T03:18:04;-2.77;85.16
69436;SHT31;56625;54.322;18.582;2022-12-18T03:20:49;-2.77;85.03
69436;SHT31;56625;54.322;18.582;2022-12-18T03:23:21;-2.79;84.93
69436;SHT31;56625;54.322;18.582;2022-12-18T03:25:54;-2.79;84.83
69436;SHT31;56625;54.322;18.582;2022-12-18T03:28:35;-2.77;84.65
69436;SHT31;56625;54.322;18.582;2022-12-18T03:31:11;-2.78;84.58
69436;SHT31;56625;54.322;18.582;2022-12-18T03:33:51;-2.79;84.49
69436;SHT31;56625;54.322;18.582;2022-12-18T03:36:26;-2.80;84.36
69436;SHT31;56625;54.322;18.582;2022-12-18T03:38:54;-2.80;84.26
69436;SHT31;56625;54.322;18.582;2022-12-18T03:41:34;-2.78;84.12
69436;SHT31;56625;54.322;18.582;2022-12-18T03:44:33;-2.77;83.95
69436;SHT31;56625;54.322;18.582;2022-12-18T03:55:20;-2.84;83.75
69436;SHT31;56625;54.322;18.582;2022-12-18T03:57:50;-2.83;83.69
69436;SHT31;56625;54.322;18.582;2022-12-18T04:00:20;-2.85;83.57
69436;SHT31;56625;54.322;18.582;2022-12-18T04:02:49;-2.86;83.56
69436;SHT31;56625;54.322;18.582;2022-12-18T04:05:23;-2.90;83.60
69436;SHT31;56625;54.322;18.582;2022-12-18T04:07:54;-2.93;83.65
69436;SHT31;56625;54.322;18.582;2022-12-18T04:10:23;-2.96;83.71
69436;SHT31;56625;54.322;18.582;2022-12-18T04:12:51;-2.96;83.70
69436;SHT31;56625;54.322;18.582;2022-12-18T04:15:24;-2.95;83.70
69436;SHT31;56625;54.322;18.582;2022-12-18T04:17:52;-2.98;83.70
69436;SHT31;56625;54.322;18.582;2022-12-18T04:20:20;-3.01;83.76
69436;SHT31;56625;54.322;18.582;2022-12-18T04:22:48;-3.04;83.80
69436;SHT31;56625;54.322;18.582;2022-12-18T04:25:16;-3.07;83.88
69436;SHT31;56625;54.322;18.582;2022-12-18T04:27:44;-3.10;83.90
69436;SHT31;56625;54.322;18.582;2022-12-18T04:30:11;-3.12;83.93
69436;SHT31;56625;54.322;18.582;2022-12-18T04:32:39;-3.14;83.91
69436;SHT31;56625;54.322;18.582;2022-12-18T04:35:07;-3.15;83.92
69436;SHT31;56625;54.322;18.582;2022-12-18T04:37:38;-3.18;83.99
69436;SHT31;56625;54.322;18.582;2022-12-18T04:40:05;-3.21;84.07
69436;SHT31;56625;54.322;18.582;2022-12-18T04:42:34;-3.24;84.12
69436;SHT31;56625;54.322;18.582;2022-12-18T04:45:02;-3.24;84.18
69436;SHT31;56625;54.322;18.582;2022-12-18T04:47:30;-3.24;84.13
69436;SHT31;56625;54.322;18.582;2022-12-18T04:49:58;-3.23;84.11
69436;SHT31;56625;54.322;18.582;2022-12-18T04:52:26;-3.23;84.10
69436;SHT31;56625;54.322;18.582;2022-12-18T04:54:54;-3.24;84.11
69436;SHT31;56625;54.322;18.582;2022-12-18T04:57:22;-3.25;84.10
69436;SHT31;56625;54.322;18.582;2022-12-18T04:59:50;-3.27;84.13
69436;SHT31;56625;54.322;18.582;2022-12-18T05:02:18;-3.29;84.20
69436;SHT31;56625;54.322;18.582;2022-12-18T05:04:46;-3.30;84.20
69436;SHT31;56625;54.322;18.582;2022-12-18T05:07:14;-3.29;84.21
69436;SHT31;56625;54.322;18.582;2022-12-18T05:09:42;-3.28;84.20
69436;SHT31;56625;54.322;18.582;2022-12-18T05:12:09;-3.26;84.13
69436;SHT31;56625;54.322;18.582;2022-12-18T05:14:37;-3.27;84.05
69436;SHT31;56625;54.322;18.582;2022-12-18T05:17:05;-3.29;84.07
69436;SHT31;56625;54.322;18.582;2022-12-18T05:19:33;-3.28;84.10
69436;SHT31;56625;54.322;18.582;2022-12-18T05:22:01;-3.29;84.10
69436;SHT31;56625;54.322;18.582;2022-12-18T05:24:29;-3.28;84.02
69436;SHT31;56625;54.322;18.582;2022-12-18T05:26:57;-3.27;83.99
69436;SHT31;56625;54.322;18.582;2022-12-18T05:29:25;-3.27;83.90
69436;SHT31;56625;54.322;18.582;2022-12-18T05:31:53;-3.27;83.90
69436;SHT31;56625;54.322;18.582;2022-12-18T05:34:21;-3.28;83.90
69436;SHT31;56625;54.322;18.582;2022-12-18T05:36:48;-3.29;83.90
69436;SHT31;56625;54.322;18.582;2022-12-18T05:39:16;-3.30;83.90
69436;SHT31;56625;54.322;18.582;2022-12-18T05:41:44;-3.29;83.90
69436;SHT31;56625;54.322;18.582;2022-12-18T05:44:13;-3.28;83.89
69436;SHT31;56625;54.322;18.582;2022-12-18T05:46:41;-3.28;83.80
69436;SHT31;56625;54.322;18.582;2022-12-18T05:49:09;-3.29;83.72
69436;SHT31;56625;54.322;18.582;2022-12-18T05:51:37;-3.29;83.72
69436;SHT31;56625;54.322;18.582;2022-12-18T05:54:05;-3.30;83.70
69436;SHT31;56625;54.322;18.582;2022-12-18T05:56:33;-3.31;83.70
69436;SHT31;56625;54.322;18.582;2022-12-18T05:59:01;-3.32;83.70
69436;SHT31;56625;54.322;18.582;2022-12-18T06:01:29;-3.33;83.73
69436;SHT31;56625;54.322;18.582;2022-12-18T06:03:57;-3.33;83.66
69436;SHT31;56625;54.322;18.582;2022-12-18T06:06:26;-3.34;83.65
69436;SHT31;56625;54.322;18.582;2022-12-18T06:08:56;-3.34;83.56
69436;SHT31;56625;54.322;18.582;2022-12-18T06:11:25;-3.33;83.50
69436;SHT31;56625;54.322;18.582;2022-12-18T06:13:54;-3.33;83.43
69436;SHT31;56625;54.322;18.582;2022-12-18T06:16:28;-3.34;83.40
69436;SHT31;56625;54.322;18.582;2022-12-18T06:18:58;-3.36;83.31
69436;SHT31;56625;54.322;18.582;2022-12-18T06:21:28;-3.36;83.30
69436;SHT31;56625;54.322;18.582;2022-12-18T06:23:58;-3.38;83.30
69436;SHT31;56625;54.322;18.582;2022-12-18T06:26:27;-3.40;83.30
69436;SHT31;56625;54.322;18.582;2022-12-18T06:28:55;-3.42;83.30
69436;SHT31;56625;54.322;18.582;2022-12-18T06:31:24;-3.44;83.32
69436;SHT31;56625;54.322;18.582;2022-12-18T06:33:52;-3.44;83.33
69436;SHT31;56625;54.322;18.582;2022-12-18T06:36:20;-3.45;83.30
69436;SHT31;56625;54.322;18.582;2022-12-18T06:38:48;-3.45;83.25
69436;SHT31;56625;54.322;18.582;2022-12-18T06:41:17;-3.46;83.20
69436;SHT31;56625;54.322;18.582;2022-12-18T06:43:48;-3.48;83.19
69436;SHT31;56625;54.322;18.582;2022-12-18T06:46:16;-3.49;83.19
69436;SHT31;56625;54.322;18.582;2022-12-18T06:48:48;-3.50;83.21
69436;SHT31;56625;54.322;18.582;2022-12-18T06:51:18;-3.48;83.19
69436;SHT31;56625;54.322;18.582;2022-12-18T06:53:48;-3.49;83.10
69436;SHT31;56625;54.322;18.582;2022-12-18T06:56:16;-3.49;83.08
69436;SHT31;56625;54.322;18.582;2022-12-18T06:58:44;-3.50;83.00
69436;SHT31;56625;54.322;18.582;2022-12-18T07:01:13;-3.48;82.97
69436;SHT31;56625;54.322;18.582;2022-12-18T07:03:41;-3.49;82.90
69436;SHT31;56625;54.322;18.582;2022-12-18T07:06:18;-3.51;82.90
69436;SHT31;56625;54.322;18.582;2022-12-18T07:08:48;-3.52;82.90
69436;SHT31;56625;54.322;18.582;2022-12-18T07:11:17;-3.53;82.90
69436;SHT31;56625;54.322;18.582;2022-12-18T07:13:47;-3.53;82.90
69436;SHT31;56625;54.322;18.582;2022-12-18T07:16:19;-3.52;82.90
69436;SHT31;56625;54.322;18.582;2022-12-18T07:18:53;-3.50;82.88
69436;SHT31;56625;54.322;18.582;2022-12-18T07:21:23;-3.48;82.90
69436;SHT31;56625;54.322;18.582;2022-12-18T07:23:52;-3.46;82.84
69436;SHT31;56625;54.322;18.582;2022-12-18T07:26:21;-3.44;82.81
69436;SHT31;56625;54.322;18.582;2022-12-18T07:28:50;-3.40;82.80
69436;SHT31;56625;54.322;18.582;2022-12-18T07:31:25;-3.35;82.76
69436;SHT31;56625;54.322;18.582;2022-12-18T07:33:54;-3.30;82.68
69436;SHT31;56625;54.322;18.582;2022-12-18T07:36:22;-3.26;82.56
69436;SHT31;56625;54.322;18.582;2022-12-18T07:38:50;-3.16;82.51
69436;SHT31;56625;54.322;18.582;2022-12-18T07:41:22;-3.09;82.22
69436;SHT31;56625;54.322;18.582;2022-12-18T07:43:50;-3.01;82.00
69436;SHT31;56625;54.322;18.582;2022-12-18T07:46:18;-2.93;81.76
69436;SHT31;56625;54.322;18.582;2022-12-18T07:48:47;-2.87;81.49
69436;SHT31;56625;54.322;18.582;2022-12-18T07:51:17;-2.81;81.37
69436;SHT31;56625;54.322;18.582;2022-12-18T07:53:46;-2.74;81.25
69436;SHT31;56625;54.322;18.582;2022-12-18T07:56:19;-2.65;81.03
69436;SHT31;56625;54.322;18.582;2022-12-18T07:58:58;-2.58;80.82
69436;SHT31;56625;54.322;18.582;2022-12-18T08:01:27;-2.48;80.82
69436;SHT31;56625;54.322;18.582;2022-12-18T08:03:56;-2.36;80.64
69436;SHT31;56625;54.322;18.582;2022-12-18T08:06:25;-2.27;80.10
69436;SHT31;56625;54.322;18.582;2022-12-18T08:08:53;-2.18;79.51
69436;SHT31;56625;54.322;18.582;2022-12-18T08:11:24;-2.10;79.32
69436;SHT31;56625;54.322;18.582;2022-12-18T08:13:55;-2.03;79.11
69436;SHT31;56625;54.322;18.582;2022-12-18T08:16:23;-1.96;78.60
69436;SHT31;56625;54.322;18.582;2022-12-18T08:18:52;-1.95;78.16
69436;SHT31;56625;54.322;18.582;2022-12-18T08:21:26;-1.91;78.01
69436;SHT31;56625;54.322;18.582;2022-12-18T08:23:57;-1.87;77.75
69436;SHT31;56625;54.322;18.582;2022-12-18T08:26:29;-1.82;77.65
69436;SHT31;56625;54.322;18.582;2022-12-18T08:28:58;-1.76;77.43
69436;SHT31;56625;54.322;18.582;2022-12-18T08:31:28;-1.69;77.26
69436;SHT31;56625;54.322;18.582;2022-12-18T08:33:58;-1.63;76.82
69436;SHT31;56625;54.322;18.582;2022-12-18T08:36:26;-1.57;76.66
69436;SHT31;56625;54.322;18.582;2022-12-18T08:38:54;-1.51;76.34
69436;SHT31;56625;54.322;18.582;2022-12-18T08:41:22;-1.47;76.03
69436;SHT31;56625;54.322;18.582;2022-12-18T08:43:50;-1.42;75.90
69436;SHT31;56625;54.322;18.582;2022-12-18T08:46:38;-1.37;75.57
69436;SHT31;56625;54.322;18.582;2022-12-18T08:49:08;-1.31;75.17
69436;SHT31;56625;54.322;18.582;2022-12-18T08:51:38;-1.25;74.89
69436;SHT31;56625;54.322;18.582;2022-12-18T08:54:07;-1.19;74.71
69436;SHT31;56625;54.322;18.582;2022-12-18T08:56:39;-1.12;74.54
69436;SHT31;56625;54.322;18.582;2022-12-18T08:59:08;-1.06;74.29
69436;SHT31;56625;54.322;18.582;2022-12-18T09:01:45;-1.00;73.94
69436;SHT31;56625;54.322;18.582;2022-12-18T09:04:14;-0.96;73.53
69436;SHT31;56625;54.322;18.582;2022-12-18T09:06:42;-0.92;73.37
69436;SHT31;56625;54.322;18.582;2022-12-18T09:09:10;-0.89;73.30
69436;SHT31;56625;54.322;18.582;2022-12-18T09:11:39;-0.87;73.20
69436;SHT31;56625;54.322;18.582;2022-12-18T09:14:08;-0.82;72.99
69436;SHT31;56625;54.322;18.582;2022-12-18T09:16:37;-0.75;73.11
69436;SHT31;56625;54.322;18.582;2022-12-18T09:19:05;-0.68;72.77
69436;SHT31;56625;54.322;18.582;2022-12-18T09:21:34;-0.64;72.39
69436;SHT31;56625;54.322;18.582;2022-12-18T09:24:11;-0.60;72.23
69436;SHT31;56625;54.322;18.582;2022-12-18T09:26:41;-0.49;72.12
69436;SHT31;56625;54.322;18.582;2022-12-18T09:29:14;-0.28;71.58
69436;SHT31;56625;54.322;18.582;2022-12-18T09:31:45;-0.14;70.82
69436;SHT31;56625;54.322;18.582;2022-12-18T09:34:14;-0.02;70.24
69436;SHT31;56625;54.322;18.582;2022-12-18T09:36:43;0.02;69.65
69436;SHT31;56625;54.322;18.582;2022-12-18T09:39:11;0.09;69.22
69436;SHT31;56625;54.322;18.582;2022-12-18T09:41:41;0.52;67.93
69436;SHT31;56625;54.322;18.582;2022-12-18T09:46:58;0.85;64.56
69436;SHT31;56625;54.322;18.582;2022-12-18T09:49:36;0.62;65.67
69436;SHT31;56625;54.322;18.582;2022-12-18T09:52:15;0.49;66.18
69436;SHT31;56625;54.322;18.582;2022-12-18T09:57:54;0.35;66.04
69436;SHT31;56625;54.322;18.582;2022-12-18T10:00:47;0.38;65.70
69436;SHT31;56625;54.322;18.582;2022-12-18T10:03:15;0.42;65.77
69436;SHT31;56625;54.322;18.582;2022-12-18T10:09:00;0.42;65.32
69436;SHT31;56625;54.322;18.582;2022-12-18T10:11:37;0.33;65.77
69436;SHT31;56625;54.322;18.582;2022-12-18T10:23:24;0.52;65.64
69436;SHT31;56625;54.322;18.582;2022-12-18T10:26:33;0.85;64.59
69436;SHT31;56625;54.322;18.582;2022-12-18T10:29:04;1.39;62.30
69436;SHT31;56625;54.322;18.582;2022-12-18T10:31:39;1.78;59.57
69436;SHT31;56625;54.322;18.582;2022-12-18T10:34:14;2.03;58.56
69436;SHT31;56625;54.322;18.582;2022-12-18T10:36:42;2.15;56.63
69436;SHT31;56625;54.322;18.582;2022-12-18T10:39:23;1.96;56.70
69436;SHT31;56625;54.322;18.582;2022-12-18T10:42:09;1.58;57.59
69436;SHT31;56625;54.322;18.582;2022-12-18T10:44:47;1.23;58.29
69436;SHT31;56625;54.322;18.582;2022-12-18T10:47:31;1.05;59.53
69436;SHT31;56625;54.322;18.582;2022-12-18T10:50:02;0.93;59.24
69436;SHT31;56625;54.322;18.582;2022-12-18T10:52:31;0.84;59.45
69436;SHT31;56625;54.322;18.582;2022-12-18T10:55:01;0.81;59.88
69436;SHT31;56625;54.322;18.582;2022-12-18T10:57:35;0.85;60.29
69436;SHT31;56625;54.322;18.582;2022-12-18T11:00:20;1.08;59.43
69436;SHT31;56625;54.322;18.582;2022-12-18T11:02:57;1.76;57.05
69436;SHT31;56625;54.322;18.582;2022-12-18T11:05:35;2.20;54.64
69436;SHT31;56625;54.322;18.582;2022-12-18T11:08:04;2.48;53.79
69436;SHT31;56625;54.322;18.582;2022-12-18T11:10:33;2.40;53.61
69436;SHT31;56625;54.322;18.582;2022-12-18T11:13:39;2.07;55.17
69436;SHT31;56625;54.322;18.582;2022-12-18T11:15:59;1.96;55.51
69436;SHT31;56625;54.322;18.582;2022-12-18T11:18:37;2.34;54.76
69436;SHT31;56625;54.322;18.582;2022-12-18T11:21:09;2.58;53.71
69436;SHT31;56625;54.322;18.582;2022-12-18T11:23:47;2.36;54.14
69436;SHT31;56625;54.322;18.582;2022-12-18T11:26:20;2.07;55.25
69436;SHT31;56625;54.322;18.582;2022-12-18T11:29:08;1.84;55.91
69436;SHT31;56625;54.322;18.582;2022-12-18T11:31:46;1.65;56.33
69436;SHT31;56625;54.322;18.582;2022-12-18T11:34:30;1.45;56.74
69436;SHT31;56625;54.322;18.582;2022-12-18T11:37:00;1.30;57.84
69436;SHT31;56625;54.322;18.582;2022-12-18T11:39:42;1.16;57.92
69436;SHT31;56625;54.322;18.582;2022-12-18T11:45:27;0.95;59.16
69436;SHT31;56625;54.322;18.582;2022-12-18T11:48:48;0.88;59.07
69436;SHT31;56625;54.322;18.582;2022-12-18T11:51:01;0.80;59.27
69436;SHT31;56625;54.322;18.582;2022-12-18T11:53:37;0.77;59.28
69436;SHT31;56625;54.322;18.582;2022-12-18T11:58:50;0.74;59.64
69436;SHT31;56625;54.322;18.582;2022-12-18T12:02:01;0.77;60.06
69436;SHT31;56625;54.322;18.582;2022-12-18T12:04:47;0.76;59.83
69436;SHT31;56625;54.322;18.582;2022-12-18T12:10:52;1.01;59.35
69436;SHT31;56625;54.322;18.582;2022-12-18T12:13:48;1.38;58.42
69436;SHT31;56625;54.322;18.582;2022-12-18T12:16:24;1.48;57.21
69436;SHT31;56625;54.322;18.582;2022-12-18T12:31:19;1.27;57.66
69436;SHT31;56625;54.322;18.582;2022-12-18T12:37:25;1.10;58.12
69436;SHT31;56625;54.322;18.582;2022-12-18T12:40:05;0.92;58.39
69436;SHT31;56625;54.322;18.582;2022-12-18T12:42:55;0.80;59.02
69436;SHT31;56625;54.322;18.582;2022-12-18T12:51:03;0.54;59.46
69436;SHT31;56625;54.322;18.582;2022-12-18T12:53:41;0.46;59.75
69436;SHT31;56625;54.322;18.582;2022-12-18T12:56:11;0.44;60.23
69436;SHT31;56625;54.322;18.582;2022-12-18T12:58:46;0.39;60.39
69436;SHT31;56625;54.322;18.582;2022-12-18T13:04:36;0.23;61.26
69436;SHT31;56625;54.322;18.582;2022-12-18T13:12:55;0.01;62.92
69436;SHT31;56625;54.322;18.582;2022-12-18T13:15:37;-0.06;63.41
69436;SHT31;56625;54.322;18.582;2022-12-18T13:20:42;-0.20;64.38
69436;SHT31;56625;54.322;18.582;2022-12-18T13:23:39;-0.30;65.08
69436;SHT31;56625;54.322;18.582;2022-12-18T13:28:54;-0.49;66.28
69436;SHT31;56625;54.322;18.582;2022-12-18T13:34:19;-0.54;66.80
69436;SHT31;56625;54.322;18.582;2022-12-18T13:36:56;-0.57;66.81
69436;SHT31;56625;54.322;18.582;2022-12-18T13:39:59;-0.66;67.06
69436;SHT31;56625;54.322;18.582;2022-12-18T13:42:39;-0.72;67.33
69436;SHT31;56625;54.322;18.582;2022-12-18T13:45:41;-0.81;67.61
69436;SHT31;56625;54.322;18.582;2022-12-18T13:48:22;-0.90;67.93
69436;SHT31;56625;54.322;18.582;2022-12-18T13:50:57;-0.96;68.20
69436;SHT31;56625;54.322;18.582;2022-12-18T13:53:33;-1.03;68.49
69436;SHT31;56625;54.322;18.582;2022-12-18T13:56:05;-1.07;68.77
69436;SHT31;56625;54.322;18.582;2022-12-18T13:58:33;-1.11;68.95
69436;SHT31;56625;54.322;18.582;2022-12-18T14:01:01;-1.16;69.12
69436;SHT31;56625;54.322;18.582;2022-12-18T14:03:32;-1.22;69.34
69436;SHT31;56625;54.322;18.582;2022-12-18T14:06:01;-1.28;69.53
69436;SHT31;56625;54.322;18.582;2022-12-18T14:08:37;-1.35;69.68
69436;SHT31;56625;54.322;18.582;2022-12-18T14:11:17;-1.41;69.88
69436;SHT31;56625;54.322;18.582;2022-12-18T14:13:53;-1.47;70.00
69436;SHT31;56625;54.322;18.582;2022-12-18T14:16:20;-1.53;70.22
69436;SHT31;56625;54.322;18.582;2022-12-18T14:18:56;-1.59;70.34
69436;SHT31;56625;54.322;18.582;2022-12-18T14:21:45;-1.64;70.40
69436;SHT31;56625;54.322;18.582;2022-12-18T14:24:16;-1.69;70.52
69436;SHT31;56625;54.322;18.582;2022-12-18T14:26:49;-1.74;70.75
69436;SHT31;56625;54.322;18.582;2022-12-18T14:29:26;-1.77;70.69
69436;SHT31;56625;54.322;18.582;2022-12-18T14:32:23;-1.76;70.71
69436;SHT31;56625;54.322;18.582;2022-12-18T14:34:52;-1.79;70.80
69436;SHT31;56625;54.322;18.582;2022-12-18T14:37:22;-1.80;70.78
69436;SHT31;56625;54.322;18.582;2022-12-18T14:42:24;-1.87;70.99
69436;SHT31;56625;54.322;18.582;2022-12-18T14:51:17;-2.08;71.45
69436;SHT31;56625;54.322;18.582;2022-12-18T14:54:05;-2.15;71.75
69436;SHT31;56625;54.322;18.582;2022-12-18T14:56:51;-2.21;71.95
69436;SHT31;56625;54.322;18.582;2022-12-18T14:59:28;-2.26;71.96
69436;SHT31;56625;54.322;18.582;2022-12-18T15:04:43;-2.36;71.99
69436;SHT31;56625;54.322;18.582;2022-12-18T15:07:15;-2.42;72.05
69436;SHT31;56625;54.322;18.582;2022-12-18T15:13:06;-2.56;72.38
69436;SHT31;56625;54.322;18.582;2022-12-18T15:15:48;-2.65;72.56
69436;SHT31;56625;54.322;18.582;2022-12-18T15:18:18;-2.72;72.71
69436;SHT31;56625;54.322;18.582;2022-12-18T15:21:00;-2.76;72.91
69436;SHT31;56625;54.322;18.582;2022-12-18T15:26:12;-2.85;73.16
69436;SHT31;56625;54.322;18.582;2022-12-18T15:28:49;-2.87;73.29
69436;SHT31;56625;54.322;18.582;2022-12-18T15:31:29;-2.89;73.29
69436;SHT31;56625;54.322;18.582;2022-12-18T15:34:00;-2.94;73.32
69436;SHT31;56625;54.322;18.582;2022-12-18T15:36:40;-3.02;73.41
69436;SHT31;56625;54.322;18.582;2022-12-18T15:39:12;-3.11;73.57
69436;SHT31;56625;54.322;18.582;2022-12-18T15:41:40;-3.20;73.64
69436;SHT31;56625;54.322;18.582;2022-12-18T15:44:28;-3.27;73.71
69436;SHT31;56625;54.322;18.582;2022-12-18T15:46:57;-3.34;73.85
69436;SHT31;56625;54.322;18.582;2022-12-18T15:49:26;-3.42;73.96
69436;SHT31;56625;54.322;18.582;2022-12-18T15:51:54;-3.49;74.00
69436;SHT31;56625;54.322;18.582;2022-12-18T15:54:26;-3.55;74.00
69436;SHT31;56625;54.322;18.582;2022-12-18T15:57:13;-3.60;74.00
69436;SHT31;56625;54.322;18.582;2022-12-18T15:59:50;-3.66;74.08
69436;SHT31;56625;54.322;18.582;2022-12-18T16:02:22;-3.73;74.17
69436;SHT31;56625;54.322;18.582;2022-12-18T16:04:51;-3.79;74.42
69436;SHT31;56625;54.322;18.582;2022-12-18T16:07:20;-3.83;74.53
69436;SHT31;56625;54.322;18.582;2022-12-18T16:09:55;-3.87;74.84
69436;SHT31;56625;54.322;18.582;2022-12-18T16:12:32;-3.92;75.11
69436;SHT31;56625;54.322;18.582;2022-12-18T16:15:00;-3.94;75.19
69436;SHT31;56625;54.322;18.582;2022-12-18T16:17:29;-3.98;75.18
69436;SHT31;56625;54.322;18.582;2022-12-18T16:19:58;-4.01;75.28
69436;SHT31;56625;54.322;18.582;2022-12-18T16:22:27;-4.04;75.34
69436;SHT31;56625;54.322;18.582;2022-12-18T16:24:57;-4.08;75.47
69436;SHT31;56625;54.322;18.582;2022-12-18T16:27:25;-4.12;75.61
69436;SHT31;56625;54.322;18.582;2022-12-18T16:29:53;-4.13;75.62
69436;SHT31;56625;54.322;18.582;2022-12-18T16:32:21;-4.12;75.56
69436;SHT31;56625;54.322;18.582;2022-12-18T16:34:51;-4.13;75.50
69436;SHT31;56625;54.322;18.582;2022-12-18T16:37:19;-4.16;75.50
69436;SHT31;56625;54.322;18.582;2022-12-18T16:39:46;-4.19;75.47
69436;SHT31;56625;54.322;18.582;2022-12-18T16:42:18;-4.22;75.50
69436;SHT31;56625;54.322;18.582;2022-12-18T16:44:48;-4.24;75.53
69436;SHT31;56625;54.322;18.582;2022-12-18T16:47:17;-4.26;75.59
69436;SHT31;56625;54.322;18.582;2022-12-18T16:49:46;-4.30;75.53
69436;SHT31;56625;54.322;18.582;2022-12-18T16:52:18;-4.29;75.41
69436;SHT31;56625;54.322;18.582;2022-12-18T16:54:46;-4.27;75.25
69436;SHT31;56625;54.322;18.582;2022-12-18T16:57:16;-4.25;75.03
69436;SHT31;56625;54.322;18.582;2022-12-18T16:59:47;-4.27;74.85
69436;SHT31;56625;54.322;18.582;2022-12-18T17:02:24;-4.32;74.88
69436;SHT31;56625;54.322;18.582;2022-12-18T17:04:55;-4.37;74.90
69436;SHT31;56625;54.322;18.582;2022-12-18T17:07:25;-4.42;74.90
69436;SHT31;56625;54.322;18.582;2022-12-18T17:09:54;-4.46;74.98
69436;SHT31;56625;54.322;18.582;2022-12-18T17:12:23;-4.53;75.11
69436;SHT31;56625;54.322;18.582;2022-12-18T17:14:53;-4.60;75.29
69436;SHT31;56625;54.322;18.582;2022-12-18T17:17:21;-4.65;75.40
69436;SHT31;56625;54.322;18.582;2022-12-18T17:19:50;-4.70;75.50
69436;SHT31;56625;54.322;18.582;2022-12-18T17:22:19;-4.74;75.61
69436;SHT31;56625;54.322;18.582;2022-12-18T17:24:49;-4.78;75.78
69436;SHT31;56625;54.322;18.582;2022-12-18T17:27:17;-4.83;75.80
69436;SHT31;56625;54.322;18.582;2022-12-18T17:29:45;-4.88;75.94
69436;SHT31;56625;54.322;18.582;2022-12-18T17:32:15;-4.92;76.03
69436;SHT31;56625;54.322;18.582;2022-12-18T17:34:44;-4.97;76.10
69436;SHT31;56625;54.322;18.582;2022-12-18T17:37:13;-5.02;76.26
69436;SHT31;56625;54.322;18.582;2022-12-18T17:39:42;-5.07;76.41
69436;SHT31;56625;54.322;18.582;2022-12-18T17:42:10;-5.10;76.52
69436;SHT31;56625;54.322;18.582;2022-12-18T17:44:42;-5.13;76.59
69436;SHT31;56625;54.322;18.582;2022-12-18T17:47:12;-5.14;76.60
69436;SHT31;56625;54.322;18.582;2022-12-18T17:49:40;-5.15;76.62
69436;SHT31;56625;54.322;18.582;2022-12-18T17:52:08;-5.19;76.67
69436;SHT31;56625;54.322;18.582;2022-12-18T17:54:37;-5.24;76.80
69436;SHT31;56625;54.322;18.582;2022-12-18T17:57:08;-5.29;76.94